Neils, Iowa
Current Conditions -  °F | °C
As of 10:55 AM on Thursday 30 Oct 2014 (Local Time) from KFXY Reporting Station
Overcast Overcast  
Wind Chill: 45°   Ceiling: 6000
Heat Index: 45°   Visibility: 10mi
Dew Point: 37°   Wind: 3mph
Humidity: 76%   Direction: 130°SE
Pressure: 30.04"   Gusts: NA
Location:  43.3059°N, 93.7624°W
Report Text: KFXY 301555Z AUTO 13003KT 10SM BKN060 OVC090 07/03 A3004 RMK AO2
Loading
Personal Weather Stations






























Interactive Weather Map
Tropical Storm Tracking
New forecast layout! Learn more

10-Day Weather Forecast

Advertisements
Track Severe Weather on mobile